Time;durP1;ratioP1;P1;durP2;ratioP2;P2;SDS_P1;SDS_P2;PMS_P1;PMS_P2;Temp;Humidity;BMP_temperature;BMP_pressure;BME280_temperature;BME280_humidity;BME280_pressure;Samples;Min_cycle;Max_cycle;Signal;HPM_P1;HPM_P2
2020/12/11 03:05:54;;;;;;;153.70;42.13;;;1.90;99.90;;;;;;5051075;28;20391;-78
2020/12/11 03:08:20;;;;;;;148.35;41.50;;;1.90;99.90;;;;;;5050718;28;20033;-78
2020/12/11 03:10:45;;;;;;;147.75;43.38;;;1.90;99.90;;;;;;5048706;28;20123;-79
2020/12/11 03:13:11;;;;;;;159.27;43.72;;;2.00;99.90;;;;;;5049750;28;20025;-78
2020/12/11 03:15:36;;;;;;;122.50;38.20;;;1.90;99.90;;;;;;5050465;28;20067;-78
2020/12/11 03:18:02;;;;;;;148.65;41.50;;;1.90;99.90;;;;;;5050730;28;20029;-78
2020/12/11 03:20:27;;;;;;;129.48;41.80;;;1.90;99.90;;;;;;5052986;28;20025;-78
2020/12/11 03:22:56;;;;;;;130.48;38.22;;;1.90;99.90;;;;;;5053959;28;20032;-78
2020/12/11 03:25:21;;;;;;;129.40;39.20;;;1.90;99.90;;;;;;5052675;28;20017;-78
2020/12/11 03:27:47;;;;;;;135.05;41.05;;;1.90;99.90;;;;;;5054092;28;20492;-78
2020/12/11 03:30:13;;;;;;;130.10;40.97;;;1.90;99.90;;;;;;5054078;28;20025;-79
2020/12/11 03:32:39;;;;;;;140.90;38.17;;;1.90;99.90;;;;;;5052741;28;20055;-78
2020/12/11 03:35:06;;;;;;;129.88;41.35;;;1.90;99.90;;;;;;5053801;28;20029;-78
2020/12/11 03:37:31;;;;;;;141.45;41.92;;;1.90;99.90;;;;;;5053923;28;20029;-79
2020/12/11 03:39:57;;;;;;;140.02;37.00;;;1.90;99.90;;;;;;5053896;28;20043;-78
2020/12/11 03:42:23;;;;;;;140.45;40.67;;;1.90;99.90;;;;;;5033336;28;602381;-78
2020/12/11 03:44:48;;;;;;;124.40;37.35;;;1.90;99.90;;;;;;5055013;28;20063;-78
2020/12/11 03:47:14;;;;;;;136.23;39.65;;;2.00;99.90;;;;;;5055482;28;20040;-78
2020/12/11 03:49:39;;;;;;;122.85;38.50;;;1.90;99.90;;;;;;5053825;28;20039;-78
2020/12/11 03:52:05;;;;;;;133.98;40.65;;;1.90;99.90;;;;;;5054869;28;20021;-78
2020/12/11 03:54:30;;;;;;;132.43;38.63;;;1.90;99.90;;;;;;5054801;28;20469;-78
2020/12/11 03:56:56;;;;;;;123.15;39.22;;;1.80;99.90;;;;;;5054889;28;20028;-78
2020/12/11 03:59:22;;;;;;;116.30;39.00;;;1.80;99.90;;;;;;5054988;28;20346;-78
2020/12/11 04:01:47;;;;;;;140.02;40.72;;;1.80;99.90;;;;;;5054862;28;20044;-78
2020/12/11 04:04:13;;;;;;;125.35;38.58;;;1.90;99.90;;;;;;5054660;28;20135;-78
2020/12/11 04:06:38;;;;;;;138.38;42.53;;;1.90;99.90;;;;;;5053425;28;20087;-78
2020/12/11 04:09:04;;;;;;;124.45;40.42;;;1.90;99.90;;;;;;5053529;28;20207;-78
2020/12/11 04:11:30;;;;;;;127.18;39.25;;;1.90;99.90;;;;;;5054626;28;20503;-78
2020/12/11 04:13:56;;;;;;;122.78;39.67;;;1.80;99.90;;;;;;5054524;28;20400;-78
2020/12/11 04:16:21;;;;;;;130.10;37.10;;;1.80;99.90;;;;;;5054559;28;20035;-78
2020/12/11 04:18:47;;;;;;;127.70;38.78;;;1.80;99.90;;;;;;5054614;28;20029;-78
2020/12/11 04:21:13;;;;;;;119.07;38.05;;;1.90;99.90;;;;;;5054387;28;20040;-78
2020/12/11 04:23:39;;;;;;;118.05;37.20;;;1.80;99.90;;;;;;5054244;28;20018;-78
2020/12/11 04:26:05;;;;;;;109.82;35.35;;;1.80;99.90;;;;;;5053082;28;20071;-78
2020/12/11 04:28:31;;;;;;;110.85;36.00;;;1.80;99.90;;;;;;5054369;28;20025;-78
2020/12/11 04:30:56;;;;;;;94.45;32.78;;;1.80;99.90;;;;;;5054113;28;20025;-78
2020/12/11 04:33:22;;;;;;;102.40;32.10;;;1.90;99.90;;;;;;5054233;28;20095;-78
2020/12/11 04:35:48;;;;;;;103.72;32.53;;;1.80;99.90;;;;;;5053970;28;20029;-78
2020/12/11 04:38:13;;;;;;;99.25;31.25;;;1.80;99.90;;;;;;5052960;28;20086;-78
2020/12/11 04:40:39;;;;;;;99.43;35.17;;;1.90;99.90;;;;;;5052861;28;20024;-77
2020/12/11 04:43:08;;;;;;;96.20;32.58;;;1.80;99.90;;;;;;5053824;28;20025;-78
2020/12/11 04:45:36;;;;;;;92.35;33.33;;;1.80;99.90;;;;;;5053940;28;20044;-78
2020/12/11 04:48:02;;;;;;;97.78;32.42;;;1.80;99.90;;;;;;5054159;28;20105;-78
2020/12/11 04:50:28;;;;;;;86.60;31.33;;;1.80;99.90;;;;;;5053959;28;20413;-78
2020/12/11 04:52:57;;;;;;;103.13;33.08;;;1.80;99.90;;;;;;5053832;28;20025;-78
2020/12/11 04:55:22;;;;;;;90.60;32.58;;;1.80;99.90;;;;;;5053820;28;20108;-78
2020/12/11 04:57:53;;;;;;;86.53;29.70;;;1.80;99.90;;;;;;5053898;28;20508;-78
2020/12/11 05:00:21;;;;;;;79.00;28.38;;;1.80;99.90;;;;;;5054457;28;20419;-78
2020/12/11 05:02:47;;;;;;;95.68;30.88;;;1.80;99.90;;;;;;5052399;28;20021;-78
2020/12/11 05:05:17;;;;;;;87.57;29.48;;;1.80;99.90;;;;;;5053066;28;20484;-79
2020/12/11 05:07:43;;;;;;;91.80;29.50;;;1.70;99.90;;;;;;5052457;28;20052;-78
2020/12/11 05:10:10;;;;;;;93.72;30.35;;;1.70;99.90;;;;;;5052404;28;20022;-79
2020/12/11 05:12:37;;;;;;;88.60;29.55;;;1.70;99.90;;;;;;5053889;28;20057;-78
2020/12/11 05:15:08;;;;;;;83.18;28.85;;;1.70;99.90;;;;;;5053398;28;20489;-78
2020/12/11 05:17:38;;;;;;;88.55;30.33;;;1.70;99.90;;;;;;5053444;28;20025;-78
2020/12/11 05:20:06;;;;;;;100.70;30.45;;;1.80;99.90;;;;;;5053490;28;20432;-79
2020/12/11 05:22:33;;;;;;;89.07;28.98;;;1.80;99.90;;;;;;5052011;28;20505;-78
2020/12/11 05:24:59;;;;;;;87.47;29.40;;;1.80;99.90;;;;;;5051899;28;20025;-78
2020/12/11 05:27:45;;;;;;;85.57;30.05;;;1.80;99.90;;;;;;5051968;28;20035;-78
2020/12/11 05:30:13;;;;;;;75.55;28.85;;;1.80;99.90;;;;;;5053241;28;20045;-78
2020/12/11 05:32:59;;;;;;;88.80;31.67;;;1.80;99.90;;;;;;5053145;28;20021;-78
2020/12/11 05:35:28;;;;;;;90.97;30.25;;;1.80;99.90;;;;;;5052765;28;20332;-78
2020/12/11 05:38:04;;;;;;;88.32;30.80;;;1.80;99.90;;;;;;5051783;28;20115;-78
2020/12/11 05:40:34;;;;;;;87.25;32.03;;;1.80;99.90;;;;;;5051583;28;20607;-78
2020/12/11 05:43:21;;;;;;;94.43;30.85;;;1.80;99.90;;;;;;5050540;28;20408;-78
2020/12/11 05:45:55;;;;;;;90.53;30.20;;;1.80;99.90;;;;;;5052644;28;20028;-78
2020/12/11 05:48:25;;;;;;;90.95;30.17;;;1.80;99.90;;;;;;5052979;28;20101;-78
2020/12/11 05:50:51;;;;;;;96.35;30.38;;;1.80;99.90;;;;;;5052828;28;20047;-78
2020/12/11 05:53:17;;;;;;;93.65;31.83;;;1.80;99.90;;;;;;5052598;28;20087;-78
2020/12/11 05:55:42;;;;;;;87.78;31.30;;;1.80;99.90;;;;;;5052532;28;20021;-78
2020/12/11 05:58:12;;;;;;;93.80;31.98;;;1.70;99.90;;;;;;5052699;28;20052;-78
2020/12/11 06:00:39;;;;;;;91.05;29.88;;;1.70;99.90;;;;;;5052708;28;20057;-78
2020/12/11 06:03:06;;;;;;;87.40;28.85;;;1.80;99.90;;;;;;5050729;28;20055;-78
2020/12/11 06:05:40;;;;;;;84.13;28.98;;;1.70;99.90;;;;;;5052433;28;20040;-78
2020/12/11 06:08:12;;;;;;;89.47;31.50;;;1.70;99.90;;;;;;5052560;28;20092;-78
2020/12/11 06:10:41;;;;;;;90.43;31.73;;;1.80;99.90;;;;;;5051279;28;20477;-79
2020/12/11 06:13:07;;;;;;;83.10;30.25;;;1.80;99.90;;;;;;5052347;28;20473;-78
2020/12/11 06:15:42;;;;;;;104.22;35.03;;;1.80;99.90;;;;;;5052080;28;20112;-78
2020/12/11 06:18:22;;;;;;;90.03;31.88;;;1.80;99.90;;;;;;5052402;28;20048;-78
2020/12/11 06:20:52;;;;;;;85.70;30.45;;;1.80;99.90;;;;;;5051236;28;20067;-79
2020/12/11 06:23:31;;;;;;;88.35;30.58;;;1.80;99.90;;;;;;5052169;28;20094;-78
2020/12/11 06:26:01;;;;;;;91.78;28.45;;;1.80;99.90;;;;;;5051920;28;20028;-78
2020/12/11 06:28:38;;;;;;;83.30;30.10;;;1.80;99.90;;;;;;5034277;28;20523;-78
2020/12/11 06:31:05;;;;;;;88.22;29.83;;;1.80;99.90;;;;;;5052333;28;20029;-78
2020/12/11 06:33:35;;;;;;;85.15;29.55;;;1.80;99.90;;;;;;5052030;28;20029;-78
2020/12/11 06:36:03;;;;;;;93.30;31.08;;;1.80;99.90;;;;;;5051753;28;20038;-79
2020/12/11 06:38:47;;;;;;;97.07;33.33;;;1.90;99.90;;;;;;5052034;28;20276;-78
2020/12/11 06:41:14;;;;;;;103.68;33.33;;;1.90;99.90;;;;;;5051795;28;20091;-78
2020/12/11 06:43:46;;;;;;;111.90;34.05;;;1.90;99.90;;;;;;5051808;28;20170;-79
2020/12/11 06:46:30;;;;;;;96.97;30.67;;;1.90;99.90;;;;;;5051884;28;20036;-78
2020/12/11 06:49:19;;;;;;;105.57;32.65;;;1.90;99.90;;;;;;5050659;28;20496;-79
2020/12/11 06:51:45;;;;;;;97.50;31.38;;;1.80;99.90;;;;;;5033889;28;20039;-78
2020/12/11 06:54:32;;;;;;;99.57;32.95;;;1.80;99.90;;;;;;5051493;28;20025;-78
2020/12/11 06:57:01;;;;;;;87.65;30.80;;;1.80;99.90;;;;;;5041556;28;20052;-78
2020/12/11 06:59:39;;;;;;;111.40;32.45;;;1.90;99.90;;;;;;5050515;28;20090;-78
2020/12/11 07:02:17;;;;;;;105.85;33.58;;;1.90;99.90;;;;;;5051635;28;20400;-78
2020/12/11 07:04:44;;;;;;;102.75;33.97;;;1.90;99.90;;;;;;5051145;28;20048;-78
2020/12/11 07:10:33;;;;;;;100.93;31.70;;;1.90;99.90;;;;;;5051890;28;20078;-78
2020/12/11 07:16:23;;;;;;;99.93;31.35;;;1.90;99.90;;;;;;5033531;28;20438;-78
2020/12/11 07:18:50;;;;;;;93.88;31.95;;;1.90;99.90;;;;;;5051754;28;20032;-78
2020/12/11 07:21:18;;;;;;;89.10;31.52;;;1.90;99.90;;;;;;5051143;28;20082;-78
2020/12/11 07:23:46;;;;;;;90.20;33.45;;;1.90;99.90;;;;;;5051385;28;20025;-78
2020/12/11 07:26:12;;;;;;;100.03;32.10;;;2.00;99.90;;;;;;5051467;28;20485;-78
2020/12/11 07:28:38;;;;;;;98.63;31.48;;;1.90;99.90;;;;;;5050159;28;20024;-78
2020/12/11 07:34:28;;;;;;;105.45;33.28;;;2.00;99.90;;;;;;5047646;28;20036;-78
2020/12/11 07:36:57;;;;;;;95.65;31.00;;;1.90;99.90;;;;;;5055109;28;20056;-79
2020/12/11 07:39:31;;;;;;;103.43;32.22;;;1.90;99.90;;;;;;5050475;28;20025;-79
2020/12/11 07:42:02;;;;;;;85.50;31.70;;;1.90;99.90;;;;;;5031568;28;20442;-84
2020/12/11 07:47:53;;;;;;;93.20;30.17;;;1.90;99.90;;;;;;5051536;28;20110;-81
2020/12/11 07:50:28;;;;;;;91.80;32.30;;;1.90;99.90;;;;;;5049563;28;20033;-80
2020/12/11 07:52:58;;;;;;;101.75;31.38;;;1.90;99.90;;;;;;5051100;28;20063;-80
2020/12/11 07:55:36;;;;;;;98.45;32.67;;;1.90;99.90;;;;;;5052836;28;20033;-78
2020/12/11 07:58:03;;;;;;;83.50;29.90;;;1.90;99.90;;;;;;5051500;28;20033;-78
2020/12/11 08:00:30;;;;;;;86.72;29.17;;;1.90;99.90;;;;;;5048758;28;20035;-78
2020/12/11 08:03:08;;;;;;;92.07;30.13;;;1.90;99.90;;;;;;5031958;28;20045;-78
2020/12/11 08:05:37;;;;;;;87.38;28.67;;;1.90;99.90;;;;;;5051635;28;20025;-79
2020/12/11 09:32:22;;;;;;;62.78;24.98;;;2.20;99.90;;;;;;5053071;28;20047;-81
2020/12/11 09:34:47;;;;;;;56.28;22.55;;;2.20;99.90;;;;;;5051494;28;20028;-79
2020/12/11 09:37:15;;;;;;;60.20;25.70;;;2.20;99.90;;;;;;5052896;28;20036;-80
2020/12/11 09:39:40;;;;;;;56.92;24.15;;;2.20;99.90;;;;;;5051814;28;20021;-81
2020/12/11 09:45:15;;;;;;;61.72;23.92;;;2.30;99.90;;;;;;5052583;28;20388;-78
2020/12/11 09:47:58;;;;;;;56.08;23.67;;;2.30;99.90;;;;;;5051829;28;20111;-79
2020/12/11 09:50:37;;;;;;;66.45;26.73;;;2.40;99.90;;;;;;5053469;28;20485;-80
2020/12/11 09:53:17;;;;;;;61.55;23.25;;;2.30;99.90;;;;;;5057335;28;20123;-80
2020/12/11 09:55:47;;;;;;;59.13;23.85;;;2.30;99.90;;;;;;5052620;28;20374;-80
2020/12/11 09:58:13;;;;;;;63.20;24.95;;;2.40;99.90;;;;;;5052487;28;20025;-80
2020/12/11 10:00:42;;;;;;;62.40;25.13;;;2.40;99.90;;;;;;5051467;28;20031;-80
2020/12/11 10:03:11;;;;;;;66.20;24.95;;;2.40;99.90;;;;;;5051976;28;20017;-80
2020/12/11 10:05:36;;;;;;;59.08;25.00;;;2.40;99.90;;;;;;5052234;28;20056;-79
2020/12/11 10:08:02;;;;;;;64.78;24.00;;;2.30;99.90;;;;;;5052320;28;20052;-82
2020/12/11 10:10:28;;;;;;;63.70;26.35;;;2.40;99.90;;;;;;5052463;28;20013;-80
2020/12/11 10:12:53;;;;;;;60.50;27.02;;;2.40;99.90;;;;;;5051011;28;20036;-79
2020/12/11 10:15:20;;;;;;;60.03;24.48;;;2.40;99.90;;;;;;5066069;28;20090;-80
2020/12/11 10:17:47;;;;;;;63.17;24.33;;;2.40;99.90;;;;;;5070594;28;20502;-79
2020/12/11 10:20:20;;;;;;;61.92;26.27;;;2.40;99.90;;;;;;5070816;28;20389;-80
2020/12/11 10:22:49;;;;;;;67.38;26.52;;;2.40;99.90;;;;;;5070787;28;20021;-80
2020/12/11 10:25:16;;;;;;;58.58;25.20;;;2.40;99.90;;;;;;5071853;28;20099;-79
2020/12/11 10:27:42;;;;;;;62.65;26.42;;;2.50;99.90;;;;;;5071922;28;20048;-79
2020/12/11 10:30:08;;;;;;;69.47;24.50;;;2.50;99.90;;;;;;5071870;28;20082;-80
2020/12/11 10:32:33;;;;;;;66.63;26.23;;;2.50;99.90;;;;;;5071903;28;20029;-80
2020/12/11 10:34:59;;;;;;;56.88;24.90;;;2.50;99.90;;;;;;5071902;28;20024;-80
2020/12/11 10:37:25;;;;;;;71.95;25.52;;;2.50;99.90;;;;;;5072094;28;20105;-80
2020/12/11 10:39:51;;;;;;;65.88;25.52;;;2.50;99.90;;;;;;5071893;28;20043;-80
2020/12/11 10:42:16;;;;;;;58.38;24.95;;;2.40;99.90;;;;;;5066372;28;20578;-79
2020/12/11 10:44:42;;;;;;;63.58;24.00;;;2.40;99.90;;;;;;5051416;28;20366;-79
2020/12/11 10:47:08;;;;;;;63.63;25.92;;;2.40;99.90;;;;;;5051684;28;20027;-79
2020/12/11 10:49:34;;;;;;;71.10;26.67;;;2.30;99.90;;;;;;5050477;28;20095;-79
2020/12/11 10:52:00;;;;;;;60.45;25.55;;;2.30;99.90;;;;;;5051727;28;20029;-79
2020/12/11 10:54:27;;;;;;;64.20;25.33;;;2.40;99.90;;;;;;5051441;28;20033;-79
2020/12/11 10:56:53;;;;;;;63.13;25.00;;;2.30;99.90;;;;;;5050353;28;20507;-78
2020/12/11 10:59:19;;;;;;;65.13;24.67;;;2.30;99.90;;;;;;5049899;28;20025;-78
2020/12/11 11:01:44;;;;;;;57.72;24.70;;;2.30;99.90;;;;;;5051404;28;20052;-78
2020/12/11 11:04:10;;;;;;;60.42;25.17;;;2.30;99.90;;;;;;5049434;28;20429;-79
2020/12/11 11:29:57;;;;;;;85.65;30.90;;;2.10;99.90;;;;;;5051099;28;20109;-77
2020/12/11 11:32:22;;;;;;;75.70;28.95;;;2.10;99.90;;;;;;5050997;28;20035;-78
2020/12/11 11:34:48;;;;;;;83.43;30.17;;;2.10;99.90;;;;;;5051006;28;20025;-78
2020/12/11 11:37:14;;;;;;;93.80;33.53;;;2.10;99.90;;;;;;5051291;28;20029;-79
2020/12/11 11:39:39;;;;;;;88.10;31.27;;;2.10;99.90;;;;;;5050821;28;20029;-78
2020/12/11 11:42:05;;;;;;;91.95;30.50;;;2.10;99.90;;;;;;5053512;28;20028;-78
2020/12/11 11:47:14;;;;;;;93.97;33.10;;;2.20;99.90;;;;;;5055423;28;20025;-77
2020/12/11 11:52:33;;;;;;;92.78;31.50;;;2.20;99.90;;;;;;5055168;28;20029;-77
2020/12/11 11:54:59;;;;;;;90.68;29.45;;;2.20;99.90;;;;;;5055087;28;20024;-77
2020/12/11 11:57:27;;;;;;;92.30;32.78;;;2.30;99.90;;;;;;5054936;28;20100;-80
2020/12/11 11:59:53;;;;;;;88.07;30.40;;;2.30;99.90;;;;;;5053705;28;20337;-79
2020/12/11 12:02:18;;;;;;;96.57;32.80;;;2.40;99.90;;;;;;5054533;28;20021;-79
2020/12/11 12:04:44;;;;;;;104.43;33.72;;;2.40;99.90;;;;;;5054644;28;20029;-79
2020/12/11 12:07:09;;;;;;;95.20;31.75;;;2.30;99.90;;;;;;5054806;28;20104;-84
2020/12/11 12:09:35;;;;;;;108.43;34.88;;;2.30;99.90;;;;;;5052868;28;20481;-83
2020/12/11 12:12:01;;;;;;;116.25;38.33;;;2.30;99.90;;;;;;5054176;28;20371;-80
2020/12/11 12:14:27;;;;;;;99.03;35.08;;;2.20;99.90;;;;;;5053072;28;20431;-79
2020/12/11 12:16:55;;;;;;;113.22;35.75;;;2.20;99.90;;;;;;5053334;28;20115;-80
2020/12/11 12:19:33;;;;;;;109.18;34.90;;;2.20;99.90;;;;;;5052962;28;20508;-79
2020/12/11 12:27:30;;;;;;;109.18;34.67;;;2.20;99.90;;;;;;5054761;28;20071;-80
2020/12/11 12:29:56;;;;;;;107.97;35.85;;;2.10;99.90;;;;;;5052824;28;20025;-78
2020/12/11 12:32:24;;;;;;;107.78;34.63;;;2.20;99.90;;;;;;5053404;28;20032;-79
2020/12/11 12:34:57;;;;;;;117.68;34.80;;;2.30;99.90;;;;;;5052711;28;20021;-79
2020/12/11 12:38:11;;;;;;;110.43;32.85;;;2.30;99.90;;;;;;5054271;28;20024;-79
2020/12/11 12:40:22;;;;;;;106.70;33.97;;;2.20;99.90;;;;;;5043017;28;20033;-80
2020/12/11 12:43:13;;;;;;;116.20;36.90;;;2.20;99.90;;;;;;5054072;28;20024;-80
2020/12/11 12:45:38;;;;;;;112.28;35.60;;;2.20;99.90;;;;;;5053898;28;20016;-81
2020/12/11 12:48:04;;;;;;;107.55;36.05;;;2.10;99.90;;;;;;5053874;28;20277;-81
2020/12/11 12:50:29;;;;;;;109.38;36.47;;;2.10;99.90;;;;;;5052465;28;20032;-81
2020/12/11 12:52:55;;;;;;;112.47;37.08;;;2.10;99.90;;;;;;5053416;28;20111;-80
2020/12/11 12:55:25;;;;;;;113.55;35.15;;;2.10;99.90;;;;;;5052328;28;20041;-80
2020/12/11 12:58:00;;;;;;;119.38;38.78;;;2.10;99.90;;;;;;5053478;28;20029;-80
2020/12/11 13:01:14;;;;;;;113.95;36.72;;;2.20;99.90;;;;;;5053576;28;20611;-78
2020/12/11 13:05:58;;;;;;;115.05;35.55;;;2.20;99.90;;;;;;5056622;28;20546;-78
2020/12/11 13:08:24;;;;;;;110.00;34.75;;;2.20;99.90;;;;;;5053103;28;20096;-81
2020/12/11 13:10:49;;;;;;;118.57;37.33;;;2.20;99.90;;;;;;5051721;28;20020;-80
2020/12/11 13:13:15;;;;;;;124.53;38.50;;;2.20;99.90;;;;;;5052104;28;20025;-80
2020/12/11 13:15:41;;;;;;;112.95;39.50;;;2.30;99.90;;;;;;5053326;28;20029;-80
2020/12/11 13:18:06;;;;;;;118.97;35.25;;;2.20;99.90;;;;;;5052084;28;20021;-80
2020/12/11 13:20:36;;;;;;;110.80;36.65;;;2.30;99.90;;;;;;5052589;28;20559;-80
2020/12/11 13:25:23;;;;;;;111.43;36.00;;;2.30;99.90;;;;;;5052961;28;20416;-85
2020/12/11 13:28:35;;;;;;;110.35;36.45;;;2.30;99.90;;;;;;5053505;28;20047;-83
2020/12/11 13:31:01;;;;;;;107.65;36.85;;;2.30;99.90;;;;;;5051951;28;20052;-84
2020/12/11 13:33:26;;;;;;;113.07;39.60;;;2.30;99.90;;;;;;5052949;28;20029;-84
2020/12/11 13:35:52;;;;;;;122.55;37.55;;;2.40;99.90;;;;;;5051495;28;20421;-84
2020/12/11 13:38:18;;;;;;;108.25;37.50;;;2.30;99.90;;;;;;5051505;28;20039;-84
2020/12/11 13:40:43;;;;;;;107.45;36.08;;;2.30;99.90;;;;;;5051875;28;20059;-84
2020/12/11 13:43:09;;;;;;;128.98;38.17;;;2.30;99.90;;;;;;5052490;28;20105;-84
2020/12/11 13:45:34;;;;;;;117.70;39.50;;;2.40;99.90;;;;;;5052426;28;20036;-83
2020/12/11 13:48:00;;;;;;;119.28;36.58;;;2.40;99.90;;;;;;5051507;28;20111;-84
2020/12/11 13:50:25;;;;;;;111.72;35.13;;;2.30;99.90;;;;;;5051483;28;20031;-84
2020/12/11 13:52:51;;;;;;;101.90;35.35;;;2.30;99.90;;;;;;5051483;28;20060;-84
2020/12/11 13:55:16;;;;;;;103.70;33.83;;;2.30;99.90;;;;;;5051195;28;20481;-84
2020/12/11 13:57:42;;;;;;;115.47;36.38;;;2.30;99.90;;;;;;5052727;28;20024;-84
2020/12/11 14:00:08;;;;;;;106.70;35.63;;;2.30;99.90;;;;;;5052215;28;20037;-84
2020/12/11 14:02:33;;;;;;;100.60;34.28;;;2.30;99.90;;;;;;5050764;28;20029;-84
2020/12/11 14:04:59;;;;;;;102.82;37.50;;;2.30;99.90;;;;;;5050852;28;20021;-85
2020/12/11 14:07:24;;;;;;;105.68;35.15;;;2.30;99.90;;;;;;5051193;28;20151;-84
2020/12/11 14:09:50;;;;;;;97.43;33.63;;;2.30;99.90;;;;;;5050898;28;20108;-85
2020/12/11 14:12:15;;;;;;;104.95;34.25;;;2.30;99.90;;;;;;5050765;28;20025;-85
2020/12/11 14:14:41;;;;;;;85.70;31.40;;;2.40;99.90;;;;;;5050951;28;20035;-85
2020/12/11 14:17:09;;;;;;;104.65;31.80;;;2.40;99.90;;;;;;5052449;28;20507;-85
2020/12/11 14:24:42;;;;;;;102.50;33.10;;;2.30;99.90;;;;;;5051757;28;20032;-85
2020/12/11 14:27:08;;;;;;;96.32;32.63;;;2.30;99.90;;;;;;5050934;28;20013;-86
2020/12/11 14:29:33;;;;;;;84.78;31.33;;;2.30;99.90;;;;;;5050482;28;20120;-85
2020/12/11 14:31:59;;;;;;;97.00;34.15;;;2.40;99.90;;;;;;5050895;28;20026;-86
2020/12/11 14:34:26;;;;;;;73.78;29.92;;;2.40;99.90;;;;;;5051829;28;20453;-83
2020/12/11 14:36:52;;;;;;;89.65;31.17;;;2.40;99.90;;;;;;5052022;28;20028;-81
2020/12/11 14:39:17;;;;;;;84.28;32.22;;;2.40;99.90;;;;;;5049587;28;20463;-80
2020/12/11 14:41:44;;;;;;;94.95;33.35;;;2.40;99.90;;;;;;5054721;28;20056;-81
2020/12/11 14:44:10;;;;;;;84.72;30.50;;;2.40;99.90;;;;;;5051710;28;20020;-81
2020/12/11 14:46:36;;;;;;;75.45;31.42;;;2.40;99.90;;;;;;5051716;28;20451;-81
2020/12/11 14:49:05;;;;;;;77.65;30.15;;;2.40;99.90;;;;;;5051534;28;20075;-81
2020/12/11 14:51:39;;;;;;;89.95;34.17;;;2.50;99.90;;;;;;5031741;28;20448;-81
2020/12/11 14:54:06;;;;;;;85.97;32.20;;;2.50;99.90;;;;;;5042965;28;20018;-81
2020/12/11 14:56:43;;;;;;;80.72;29.85;;;2.50;99.90;;;;;;5050384;28;20027;-88
2020/12/11 14:59:09;;;;;;;82.65;28.80;;;2.40;99.90;;;;;;5050420;28;20021;-82
2020/12/11 15:01:34;;;;;;;83.22;30.70;;;2.40;99.90;;;;;;5051502;28;20108;-82
2020/12/11 15:04:00;;;;;;;86.57;30.58;;;2.40;99.90;;;;;;5050822;28;20029;-82
2020/12/11 15:06:27;;;;;;;77.53;30.05;;;2.40;99.90;;;;;;5050451;28;20040;-82
2020/12/11 15:08:53;;;;;;;84.53;30.35;;;2.40;99.90;;;;;;5051450;28;20067;-82
2020/12/11 15:11:20;;;;;;;79.28;31.35;;;2.40;99.90;;;;;;5051820;28;20028;-82
2020/12/11 15:13:46;;;;;;;85.40;31.58;;;2.40;99.90;;;;;;5053149;28;20047;-81
2020/12/11 15:16:14;;;;;;;77.68;30.80;;;2.40;99.90;;;;;;5056118;28;20507;-81
2020/12/11 15:18:40;;;;;;;85.50;32.53;;;2.40;99.90;;;;;;5054339;28;20029;-81
2020/12/11 15:21:06;;;;;;;77.38;30.00;;;2.40;99.90;;;;;;5055094;28;20499;-82
2020/12/11 15:23:32;;;;;;;89.30;31.60;;;2.40;99.90;;;;;;5055254;28;20464;-81
2020/12/11 15:25:58;;;;;;;90.05;31.90;;;2.40;99.90;;;;;;5063629;28;20111;-81
2020/12/11 15:28:24;;;;;;;88.90;30.80;;;2.40;99.90;;;;;;5060058;28;20060;-81
2020/12/11 15:30:50;;;;;;;80.38;31.17;;;2.50;99.90;;;;;;5053820;28;20044;-81
2020/12/11 15:33:15;;;;;;;91.25;30.20;;;2.50;99.90;;;;;;5053991;28;20556;-82
2020/12/11 15:35:41;;;;;;;90.97;30.35;;;2.50;99.90;;;;;;5055220;28;20059;-83
2020/12/11 15:38:07;;;;;;;103.00;34.75;;;2.50;99.90;;;;;;5054735;28;20063;-82
2020/12/11 15:40:33;;;;;;;90.95;32.03;;;2.50;99.90;;;;;;5055366;28;20060;-83
2020/12/11 15:42:59;;;;;;;78.82;31.70;;;2.50;99.90;;;;;;5055549;28;20033;-83
2020/12/11 15:45:24;;;;;;;86.65;30.75;;;2.50;99.90;;;;;;5054801;28;20075;-83
2020/12/11 15:47:50;;;;;;;77.60;29.55;;;2.50;99.90;;;;;;5054973;28;20060;-82
2020/12/11 15:50:25;;;;;;;77.95;28.77;;;2.50;99.90;;;;;;5054941;28;20056;-83
2020/12/11 15:52:58;;;;;;;80.65;30.20;;;2.50;99.90;;;;;;5053683;28;20059;-84
2020/12/11 15:55:25;;;;;;;90.45;33.67;;;2.50;99.90;;;;;;5054552;28;20029;-84
2020/12/11 15:57:53;;;;;;;93.45;33.03;;;2.50;99.90;;;;;;5060214;28;20032;-82
2020/12/11 16:00:23;;;;;;;80.07;30.33;;;2.50;99.90;;;;;;5054537;28;20075;-81
2020/12/11 16:02:48;;;;;;;84.40;32.28;;;2.50;99.90;;;;;;5053466;28;20489;-84
2020/12/11 16:05:15;;;;;;;82.45;31.10;;;2.50;99.90;;;;;;5052520;28;20067;-83
2020/12/11 16:07:42;;;;;;;87.00;32.00;;;2.50;99.90;;;;;;5038130;28;20030;-83
2020/12/11 16:10:08;;;;;;;82.75;30.73;;;2.50;99.90;;;;;;5036777;28;20024;-82
2020/12/11 16:12:35;;;;;;;79.68;30.30;;;2.50;99.90;;;;;;5054727;28;20025;-83
2020/12/11 16:15:01;;;;;;;85.65;30.35;;;2.50;99.90;;;;;;5054820;28;20021;-83
2020/12/11 16:17:27;;;;;;;89.40;30.40;;;2.50;99.90;;;;;;5054819;28;20488;-83
2020/12/11 16:19:52;;;;;;;79.20;30.50;;;2.50;99.90;;;;;;5053122;28;20025;-84
2020/12/11 16:22:18;;;;;;;88.80;33.95;;;2.50;99.90;;;;;;5054242;28;20515;-82
2020/12/11 16:24:43;;;;;;;74.70;27.92;;;2.50;99.90;;;;;;5052790;28;20449;-84
2020/12/11 16:27:12;;;;;;;79.75;29.50;;;2.50;99.90;;;;;;5053736;28;20108;-84
2020/12/11 16:29:38;;;;;;;65.68;27.17;;;2.60;99.90;;;;;;5059178;28;20481;-84
2020/12/11 16:32:03;;;;;;;78.18;28.90;;;2.60;99.90;;;;;;5074435;28;20064;-84
2020/12/11 16:34:29;;;;;;;73.97;28.23;;;2.60;99.90;;;;;;5061090;28;20039;-85
2020/12/11 16:36:55;;;;;;;74.10;29.67;;;2.60;99.90;;;;;;5054861;28;20036;-87
2020/12/11 16:39:21;;;;;;;71.00;27.92;;;2.50;99.90;;;;;;5048951;28;20030;-85
2020/12/11 16:42:10;;;;;;;71.50;29.30;;;2.60;99.90;;;;;;5032553;28;20058;-84
2020/12/11 16:44:49;;;;;;;77.07;29.08;;;2.50;99.90;;;;;;5053236;28;20071;-84
2020/12/11 16:47:14;;;;;;;76.15;29.67;;;2.60;99.90;;;;;;5052681;28;20039;-83
2020/12/11 16:49:45;;;;;;;72.70;28.63;;;2.60;99.90;;;;;;5052550;28;20021;-84
2020/12/11 16:52:14;;;;;;;70.47;28.25;;;2.60;99.90;;;;;;5053843;28;20396;-83
2020/12/11 16:54:41;;;;;;;71.55;28.17;;;2.60;99.90;;;;;;5052431;28;20237;-83
2020/12/11 16:57:08;;;;;;;76.03;30.63;;;2.60;99.90;;;;;;5053253;28;20489;-84
2020/12/11 16:59:50;;;;;;;68.90;28.45;;;2.60;99.90;;;;;;5053945;28;20033;-84
2020/12/11 17:02:18;;;;;;;68.10;28.75;;;2.60;99.90;;;;;;5053175;28;20101;-83
2020/12/11 17:07:16;;;;;;;73.15;29.25;;;2.60;99.90;;;;;;5053708;28;20013;-84
2020/12/11 17:09:45;;;;;;;69.57;28.35;;;2.50;99.90;;;;;;5053795;28;20028;-85
2020/12/11 17:12:11;;;;;;;65.55;28.67;;;2.50;99.90;;;;;;5052999;28;20111;-84
2020/12/11 17:14:36;;;;;;;77.30;30.90;;;2.60;99.90;;;;;;5051930;28;20116;-83
2020/12/11 17:17:10;;;;;;;76.13;30.40;;;2.60;99.90;;;;;;5053487;28;20033;-85
2020/12/11 17:19:35;;;;;;;;;;;2.60;99.90;;;;;;5052729;28;20028;-83
2020/12/11 17:22:04;;;;;;;79.82;28.67;;;2.50;99.90;;;;;;5053496;28;19915;-85
2020/12/11 17:24:29;;;;;;;77.45;31.42;;;2.60;99.90;;;;;;5052899;28;20029;-83
2020/12/11 17:26:56;;;;;;;69.05;27.65;;;2.60;99.90;;;;;;5052076;28;20103;-83
2020/12/11 17:29:22;;;;;;;78.90;29.50;;;2.60;99.90;;;;;;5053048;28;20028;-82
2020/12/11 17:32:42;;;;;;;83.45;29.92;;;2.60;99.90;;;;;;5052805;28;20040;-82
2020/12/11 17:37:15;;;;;;;81.05;30.45;;;2.60;99.90;;;;;;5052961;28;20075;-85
2020/12/11 17:39:42;;;;;;;76.10;29.77;;;2.60;99.90;;;;;;5051654;28;20029;-83
2020/12/11 17:42:08;;;;;;;83.97;28.90;;;2.60;99.90;;;;;;5051348;28;20028;-82
2020/12/11 17:44:34;;;;;;;66.20;28.23;;;2.60;99.90;;;;;;5051077;28;20110;-84
2020/12/11 17:47:00;;;;;;;76.70;29.58;;;2.60;99.90;;;;;;5053104;28;20049;-81
2020/12/11 17:49:26;;;;;;;79.93;29.85;;;2.60;99.90;;;;;;5052574;28;20528;-81
2020/12/11 17:51:53;;;;;;;73.72;30.65;;;2.60;99.90;;;;;;5051171;28;20382;-81
2020/12/11 17:54:20;;;;;;;75.88;29.75;;;2.60;99.90;;;;;;5051414;28;20024;-80
2020/12/11 17:56:46;;;;;;;69.32;29.65;;;2.60;99.90;;;;;;5052691;28;20040;-81
2020/12/11 17:59:12;;;;;;;72.40;28.92;;;2.60;99.90;;;;;;5052251;28;20029;-81
2020/12/11 18:01:38;;;;;;;81.18;30.35;;;2.60;99.90;;;;;;5052305;28;20492;-81
2020/12/11 18:04:04;;;;;;;71.63;29.23;;;2.60;99.90;;;;;;5052326;28;20096;-81
2020/12/11 18:06:38;;;;;;;81.50;29.75;;;2.60;99.90;;;;;;5060436;28;20507;-81
2020/12/11 18:09:05;;;;;;;76.63;29.83;;;2.60;99.90;;;;;;5058701;28;20439;-81
2020/12/11 18:11:31;;;;;;;73.00;28.85;;;2.60;99.90;;;;;;5050994;28;20039;-80
2020/12/11 18:13:57;;;;;;;75.10;31.23;;;2.60;99.90;;;;;;5050710;28;20029;-80